createdAt,value
2022-11-14T00:07:40.570Z,23.10
2022-11-14T00:26:21.400Z,21.40
2022-11-14T00:45:01.823Z,27.30
2022-11-14T01:03:40.612Z,21.40
2022-11-14T01:22:20.970Z,20.60
2022-11-14T01:41:00.239Z,22.20
2022-11-14T01:59:39.907Z,18.60
2022-11-14T02:18:19.701Z,19.10
2022-11-14T02:37:00.168Z,20.40
2022-11-14T02:55:40.094Z,22.10
2022-11-14T03:14:21.017Z,23.80
2022-11-14T03:33:01.572Z,20.70
2022-11-14T03:51:40.001Z,21.60
2022-11-14T04:10:20.426Z,26.80
2022-11-14T04:29:03.352Z,23.70
2022-11-14T04:47:42.221Z,26.20
2022-11-14T05:06:22.852Z,23.40
2022-11-14T05:25:04.791Z,26.00
2022-11-14T05:43:45.801Z,21.70
2022-11-14T06:02:26.237Z,48.30
2022-11-14T06:21:07.877Z,21.30
2022-11-14T06:39:48.236Z,22.40
2022-11-14T06:58:33.476Z,17.60
2022-11-14T07:17:10.219Z,23.50
2022-11-14T07:35:51.986Z,26.60
2022-11-14T07:54:32.881Z,21.30
2022-11-14T08:13:33.322Z,18.10
2022-11-14T08:32:00.039Z,16.60
2022-11-14T08:50:37.629Z,10.00
2022-11-14T09:09:20.160Z,26.30
2022-11-14T09:46:43.938Z,17.70
2022-11-14T10:05:26.403Z,13.00
2022-11-14T10:42:54.398Z,10.80
2022-11-14T11:01:41.019Z,8.50
2022-11-14T11:20:40.754Z,6.80
2022-11-14T11:58:00.382Z,5.00
2022-11-14T12:16:42.047Z,5.90
2022-11-14T12:35:13.473Z,6.80
2022-11-14T12:54:01.841Z,5.50
2022-11-14T13:12:26.018Z,4.60
2022-11-14T13:49:35.472Z,4.80
2022-11-14T14:08:16.573Z,3.50
2022-11-14T14:26:53.702Z,3.10
2022-11-14T14:45:30.326Z,3.30
2022-11-14T15:04:08.430Z,4.80
2022-11-14T15:22:44.527Z,4.80
2022-11-14T16:00:03.629Z,6.10
2022-11-14T16:18:41.936Z,7.90
2022-11-14T16:37:18.687Z,6.50
2022-11-14T16:55:58.314Z,6.20
2022-11-14T17:14:38.088Z,8.00
2022-11-14T17:33:17.062Z,8.80
2022-11-14T17:51:56.730Z,9.10
2022-11-14T18:10:35.704Z,10.70
2022-11-14T18:29:16.264Z,12.60
2022-11-14T18:47:56.417Z,12.30
2022-11-14T19:06:37.918Z,13.80
2022-11-14T19:43:56.946Z,10.50
2022-11-14T20:21:15.492Z,9.30
2022-11-14T20:39:54.789Z,8.60
2022-11-14T20:58:35.141Z,12.90
2022-11-14T21:17:14.906Z,11.70
2022-11-14T21:35:56.058Z,11.80
2022-11-14T21:54:34.005Z,14.00
2022-11-14T22:13:14.450Z,12.60
2022-11-14T22:31:54.511Z,11.00
2022-11-14T22:50:34.973Z,14.40
2022-11-14T23:09:19.689Z,11.30
2022-11-14T23:27:53.978Z,12.50
2022-11-14T23:46:35.169Z,11.60
